createdAt,value
2023-03-12T00:01:17.505Z,97242.47
2023-03-12T00:03:46.074Z,97245.94
2023-03-12T00:06:14.560Z,97244.22
2023-03-12T00:08:43.269Z,97250.22
2023-03-12T00:11:14.542Z,97260.69
2023-03-12T00:13:45.298Z,97256.28
2023-03-12T00:16:16.079Z,97258.19
2023-03-12T00:18:45.495Z,97259.97
2023-03-12T00:21:13.868Z,97256.75
2023-03-12T00:23:42.423Z,97258.66
2023-03-12T00:26:13.726Z,97257.00
2023-03-12T00:28:43.847Z,97257.22
2023-03-12T00:31:18.176Z,97253.03
2023-03-12T00:33:46.821Z,97252.44
2023-03-12T00:36:15.121Z,97256.81
2023-03-12T00:38:43.619Z,97257.06
2023-03-12T00:41:12.210Z,97256.25
2023-03-12T00:43:40.599Z,97252.03
2023-03-12T00:46:10.325Z,97260.84
2023-03-12T00:48:38.727Z,97261.94
2023-03-12T00:51:07.303Z,97252.50
2023-03-12T00:53:36.021Z,97265.81
2023-03-12T00:56:04.628Z,97265.22
2023-03-12T00:58:32.926Z,97262.81
2023-03-12T01:01:01.304Z,97256.97
2023-03-12T01:03:31.135Z,97256.34
2023-03-12T01:05:59.394Z,97256.56
2023-03-12T01:08:27.727Z,97255.13
2023-03-12T01:10:56.176Z,97262.03
2023-03-12T01:13:24.489Z,97261.31
2023-03-12T01:15:52.829Z,97265.84
2023-03-12T01:18:21.125Z,97268.66
2023-03-12T01:20:50.833Z,97272.34
2023-03-12T01:23:19.159Z,97270.69
2023-03-12T01:25:48.499Z,97282.22
2023-03-12T01:28:16.848Z,97277.19
2023-03-12T01:30:45.248Z,97279.00
2023-03-12T01:33:13.538Z,97281.00
2023-03-12T01:35:42.963Z,97276.81
2023-03-12T01:38:18.198Z,97276.19
2023-03-12T01:40:46.496Z,97272.84
2023-03-12T01:43:28.910Z,97268.75
2023-03-12T01:46:28.112Z,97274.19
2023-03-12T01:49:02.576Z,97274.41
2023-03-12T01:51:37.206Z,97271.06
2023-03-12T01:54:12.721Z,97267.72
2023-03-12T01:56:41.611Z,97267.84
2023-03-12T01:59:16.651Z,97270.56
2023-03-12T02:01:46.004Z,97268.88
2023-03-12T02:04:15.894Z,97273.28
2023-03-12T02:06:51.000Z,97272.66
2023-03-12T02:09:23.162Z,97277.09
2023-03-12T02:11:51.622Z,97272.78
2023-03-12T02:14:19.959Z,97271.97
2023-03-12T02:16:48.384Z,97279.06
2023-03-12T02:19:25.490Z,97272.97
2023-03-12T02:21:54.079Z,97265.34
2023-03-12T02:24:32.158Z,97270.81
2023-03-12T02:27:03.870Z,97274.38
2023-03-12T02:29:34.691Z,97277.19
2023-03-12T02:32:06.854Z,97268.72
2023-03-12T02:34:35.979Z,97273.34
2023-03-12T02:37:04.360Z,97274.38
2023-03-12T02:39:32.622Z,97289.47
2023-03-12T02:42:02.327Z,97293.97
2023-03-12T02:44:36.494Z,97288.94
2023-03-12T02:47:05.625Z,97293.31
2023-03-12T02:49:36.003Z,97291.88
2023-03-12T02:52:05.274Z,97288.53
2023-03-12T02:54:33.539Z,97297.41
2023-03-12T02:57:03.319Z,97294.06
2023-03-12T02:59:31.779Z,97293.25
2023-03-12T03:02:02.202Z,97301.31
2023-03-12T03:04:34.085Z,97297.25
2023-03-12T03:07:02.869Z,97304.34
2023-03-12T03:09:31.155Z,97311.44
2023-03-12T03:11:59.438Z,97312.41
2023-03-12T03:14:29.079Z,97316.06
2023-03-12T03:16:57.388Z,97318.88
2023-03-12T03:19:25.727Z,97311.34
2023-03-12T03:21:53.986Z,97311.44
2023-03-12T03:24:22.251Z,97315.09
2023-03-12T03:26:50.520Z,97310.91
2023-03-12T03:29:18.725Z,97311.13
2023-03-12T03:31:48.279Z,97309.56
2023-03-12T03:34:16.499Z,97310.56
2023-03-12T03:36:44.698Z,97308.91
2023-03-12T03:39:12.888Z,97312.47
2023-03-12T03:41:41.174Z,97312.59
2023-03-12T03:44:09.466Z,97313.50
2023-03-12T03:46:37.810Z,97319.66
2023-03-12T03:49:07.774Z,97315.28
2023-03-12T03:51:36.311Z,97319.66
2023-03-12T03:54:04.683Z,97318.00
2023-03-12T03:56:32.960Z,97318.81
2023-03-12T03:59:01.965Z,97326.78
2023-03-12T04:01:31.365Z,97329.38
2023-03-12T04:03:59.828Z,97332.00
2023-03-12T04:06:29.899Z,97339.84
2023-03-12T04:08:58.448Z,97340.69
2023-03-12T04:11:27.153Z,97343.50
2023-03-12T04:13:55.450Z,97345.06
2023-03-12T04:16:24.715Z,97350.38
2023-03-12T04:18:53.014Z,97355.72
2023-03-12T04:21:21.721Z,97355.72
2023-03-12T04:23:51.353Z,97354.81
2023-03-12T04:26:19.598Z,97353.09
2023-03-12T04:28:48.016Z,97355.72
2023-03-12T04:31:16.464Z,97353.94
2023-03-12T04:33:44.744Z,97355.72
2023-03-12T04:36:13.454Z,97357.53
2023-03-12T04:38:42.826Z,97353.94
2023-03-12T04:41:15.173Z,97354.81
2023-03-12T04:43:43.710Z,97362.63
2023-03-12T04:46:12.373Z,97359.09
2023-03-12T04:48:40.690Z,97355.63
2023-03-12T04:51:08.955Z,97364.31
2023-03-12T04:53:37.205Z,97362.44
2023-03-12T04:56:06.156Z,97364.09
2023-03-12T04:58:36.991Z,97363.16
2023-03-12T05:01:06.012Z,97355.31
2023-03-12T05:03:35.391Z,97357.81
2023-03-12T05:06:03.702Z,97351.78
2023-03-12T05:08:31.926Z,97344.75
2023-03-12T05:11:00.191Z,97352.50
2023-03-12T05:13:28.458Z,97347.28
2023-03-12T05:15:58.108Z,97344.56
2023-03-12T05:18:26.954Z,97335.81
2023-03-12T05:21:02.787Z,97340.19
2023-03-12T05:23:31.705Z,97334.00
2023-03-12T05:26:00.017Z,97335.69
2023-03-12T05:28:29.366Z,97331.19
2023-03-12T05:31:01.683Z,97332.03
2023-03-12T05:33:30.627Z,97337.16
2023-03-12T05:35:58.971Z,97328.38
2023-03-12T05:38:27.315Z,97330.06
2023-03-12T05:40:58.359Z,97337.81
2023-03-12T05:43:27.509Z,97336.00
2023-03-12T05:46:01.851Z,97338.41
2023-03-12T05:48:30.243Z,97341.03
2023-03-12T05:50:58.948Z,97336.66
2023-03-12T05:53:27.369Z,97341.97
2023-03-12T05:55:55.694Z,97336.84
2023-03-12T05:58:23.951Z,97335.91
2023-03-12T06:00:52.170Z,97338.63
2023-03-12T06:03:22.063Z,97338.72
2023-03-12T06:05:50.427Z,97340.50
2023-03-12T06:08:18.638Z,97339.66
2023-03-12T06:10:46.869Z,97346.56
2023-03-12T06:13:15.209Z,97339.38
2023-03-12T06:15:43.421Z,97342.72
2023-03-12T06:18:11.712Z,97345.22
2023-03-12T06:20:41.317Z,97332.97
2023-03-12T06:23:09.583Z,97339.91
2023-03-12T06:25:38.015Z,97344.06
2023-03-12T06:28:06.675Z,97346.59
2023-03-12T06:30:34.902Z,97342.31
2023-03-12T06:33:04.076Z,97348.03
2023-03-12T06:38:05.140Z,97354.78
2023-03-12T06:40:33.371Z,97347.44
2023-03-12T06:43:01.640Z,97344.50
2023-03-12T06:45:29.928Z,97339.06
2023-03-12T06:47:58.144Z,97346.59
2023-03-12T06:50:26.537Z,97348.16
2023-03-12T06:52:54.802Z,97345.34
2023-03-12T06:55:24.428Z,97345.97
2023-03-12T06:57:52.644Z,97348.38
2023-03-12T07:00:22.230Z,97358.53
2023-03-12T07:02:50.463Z,97359.16
2023-03-12T07:05:18.893Z,97361.69
2023-03-12T07:07:47.107Z,97361.25
2023-03-12T07:10:15.385Z,97367.84
2023-03-12T07:12:45.988Z,97370.94
2023-03-12T07:15:14.750Z,97372.31
2023-03-12T07:17:43.053Z,97372.72
2023-03-12T07:20:13.097Z,97375.78
2023-03-12T07:22:41.416Z,97387.59
2023-03-12T07:25:10.935Z,97377.44
2023-03-12T07:27:39.236Z,97377.00
2023-03-12T07:30:11.239Z,97382.53
2023-03-12T07:32:39.542Z,97386.28
2023-03-12T07:35:08.654Z,97384.91
2023-03-12T07:37:36.901Z,97379.97
2023-03-12T07:40:07.345Z,97373.31
2023-03-12T07:42:35.907Z,97374.44
2023-03-12T07:45:04.859Z,97374.72
2023-03-12T07:47:34.694Z,97378.56
2023-03-12T07:50:03.070Z,97379.78
2023-03-12T07:52:31.339Z,97381.25
2023-03-12T07:54:59.755Z,97381.81
2023-03-12T07:57:28.468Z,97383.41
2023-03-12T07:59:56.823Z,97388.44
2023-03-12T08:02:25.173Z,97390.81
2023-03-12T08:04:54.895Z,97390.59
2023-03-12T08:07:23.244Z,97399.16
2023-03-12T08:09:51.595Z,97394.53
2023-03-12T08:12:20.001Z,97406.69
2023-03-12T08:14:48.270Z,97408.28
2023-03-12T08:17:16.538Z,97409.72
2023-03-12T08:19:44.786Z,97403.50
2023-03-12T08:22:14.514Z,97398.25
2023-03-12T08:24:42.937Z,97400.53
2023-03-12T08:27:12.145Z,97394.22
2023-03-12T08:29:40.733Z,97390.44
2023-03-12T08:32:11.567Z,97387.47
2023-03-12T08:34:39.796Z,97390.44
2023-03-12T08:37:08.132Z,97385.47
2023-03-12T08:39:37.824Z,97387.41
2023-03-12T08:42:07.752Z,97385.72
2023-03-12T08:44:36.156Z,97385.88
2023-03-12T08:47:04.623Z,97371.69
2023-03-12T08:49:32.827Z,97382.91
2023-03-12T08:52:01.850Z,97369.13
2023-03-12T08:54:30.143Z,97372.84
2023-03-12T08:56:59.917Z,97368.16
2023-03-12T08:59:28.229Z,97367.63
2023-03-12T09:01:56.606Z,97357.91
2023-03-12T09:04:24.897Z,97362.28
2023-03-12T09:06:53.160Z,97355.41
2023-03-12T09:09:21.394Z,97354.78
2023-03-12T09:11:49.712Z,97350.59
2023-03-12T09:15:01.903Z,97361.41
2023-03-12T09:17:07.882Z,97356.75
2023-03-12T09:19:36.136Z,97358.34
2023-03-12T09:22:04.377Z,97354.22
2023-03-12T09:24:32.776Z,97352.75
2023-03-12T09:27:01.130Z,97354.06
2023-03-12T09:29:30.890Z,97354.34
2023-03-12T09:31:59.691Z,97356.19
2023-03-12T09:34:28.036Z,97355.75
2023-03-12T09:36:56.330Z,97364.25
2023-03-12T09:39:24.622Z,97359.94
2023-03-12T09:41:53.189Z,97370.22
2023-03-12T09:44:34.785Z,97367.47
2023-03-12T09:47:10.176Z,97375.78
2023-03-12T09:49:44.701Z,97372.22
2023-03-12T09:52:23.792Z,97378.88
2023-03-12T09:55:03.937Z,97380.41
2023-03-12T09:57:32.205Z,97381.97
2023-03-12T10:00:02.174Z,97384.75
2023-03-12T10:02:53.619Z,97385.44
2023-03-12T10:05:28.014Z,97375.72
2023-03-12T10:08:17.225Z,97378.22
2023-03-12T10:10:56.228Z,97386.47
2023-03-12T10:13:57.915Z,97385.75
2023-03-12T10:16:49.861Z,97378.69
2023-03-12T10:19:35.035Z,97384.78
2023-03-12T10:22:17.250Z,97381.19
2023-03-12T10:24:59.461Z,97384.34
2023-03-12T10:27:31.445Z,97380.22
2023-03-12T10:30:00.415Z,97383.13
2023-03-12T10:32:39.857Z,97377.59
2023-03-12T10:35:19.329Z,97379.56
2023-03-12T10:37:52.647Z,97378.91
2023-03-12T10:40:23.873Z,97385.25
2023-03-12T10:42:52.335Z,97384.72
2023-03-12T10:45:32.315Z,97385.09
2023-03-12T10:48:07.175Z,97387.00
2023-03-12T10:50:36.898Z,97388.19
2023-03-12T10:53:22.441Z,97389.00
2023-03-12T10:56:04.249Z,97389.25
2023-03-12T10:58:39.410Z,97395.56
2023-03-12T11:01:18.363Z,97387.13
2023-03-12T11:03:48.458Z,97395.69
2023-03-12T11:06:25.511Z,97392.50
2023-03-12T11:09:17.460Z,97397.00
2023-03-12T11:11:48.480Z,97389.34
2023-03-12T11:14:20.335Z,97388.16
2023-03-12T11:16:49.392Z,97392.56
2023-03-12T11:19:30.533Z,97386.31
2023-03-12T11:22:01.901Z,97385.19
2023-03-12T11:24:31.164Z,97378.06
2023-03-12T11:27:06.874Z,97376.81
2023-03-12T11:29:40.017Z,97377.38
2023-03-12T11:32:17.121Z,97375.75
2023-03-12T11:34:49.603Z,97375.25
2023-03-12T11:37:29.279Z,97376.13
2023-03-12T11:40:20.549Z,97369.88
2023-03-12T11:43:42.656Z,97357.81
2023-03-12T11:46:28.604Z,97366.38
2023-03-12T11:49:21.054Z,97367.81
2023-03-12T11:51:58.213Z,97363.69
2023-03-12T11:54:57.721Z,97355.84
2023-03-12T11:57:33.767Z,97355.00
2023-03-12T12:00:17.334Z,97354.59
2023-03-12T12:03:34.912Z,97342.41
2023-03-12T12:06:07.490Z,97348.72
2023-03-12T12:09:05.808Z,97331.59
2023-03-12T12:11:48.110Z,97330.69
2023-03-12T12:14:30.911Z,97328.53
2023-03-12T12:17:14.914Z,97333.25
2023-03-12T12:20:10.105Z,97334.00
2023-03-12T12:22:55.262Z,97327.38
2023-03-12T12:25:35.478Z,97338.88
2023-03-12T12:28:48.829Z,97330.63
2023-03-12T12:31:30.182Z,97327.00
2023-03-12T12:34:28.672Z,97319.25
2023-03-12T12:37:06.478Z,97318.44
2023-03-12T12:39:39.815Z,97322.31
2023-03-12T12:42:17.540Z,97317.19
2023-03-12T12:44:50.960Z,97307.88
2023-03-12T12:47:36.521Z,97304.28
2023-03-12T12:50:06.003Z,97305.28
2023-03-12T12:52:35.151Z,97315.41
2023-03-12T12:55:13.278Z,97318.47
2023-03-12T12:57:47.087Z,97306.13
2023-03-12T13:00:38.519Z,97312.63
2023-03-12T13:03:06.916Z,97302.50
2023-03-12T13:05:47.555Z,97301.41
2023-03-12T13:09:16.231Z,97299.06
2023-03-12T13:11:48.808Z,97301.28
2023-03-12T13:14:40.358Z,97298.22
2023-03-12T13:17:23.069Z,97298.22
2023-03-12T13:20:00.873Z,97305.16
2023-03-12T13:22:49.318Z,97294.75
2023-03-12T13:25:32.998Z,97293.34
2023-03-12T13:28:03.648Z,97292.09
2023-03-12T13:30:51.569Z,97285.44
2023-03-12T13:33:22.413Z,97278.75
2023-03-12T13:36:10.645Z,97287.94
2023-03-12T13:38:41.186Z,97284.72
2023-03-12T13:41:09.510Z,97287.91
2023-03-12T13:43:56.273Z,97291.38
2023-03-12T13:46:50.604Z,97276.25
2023-03-12T13:49:21.252Z,97272.91
2023-03-12T13:52:04.718Z,97280.41
2023-03-12T13:54:42.768Z,97279.41
2023-03-12T13:57:29.165Z,97279.28
2023-03-12T13:59:59.065Z,97284.56
2023-03-12T14:02:33.846Z,97292.91
2023-03-12T14:05:08.057Z,97279.53
2023-03-12T14:07:59.429Z,97286.63
2023-03-12T14:10:37.702Z,97290.94
2023-03-12T14:13:24.464Z,97299.97
2023-03-12T14:16:00.855Z,97301.22
2023-03-12T14:18:33.788Z,97284.94
2023-03-12T14:21:07.377Z,97286.19
2023-03-12T14:23:40.422Z,97292.00
2023-03-12T14:26:18.627Z,97283.56
2023-03-12T14:29:00.212Z,97274.09
2023-03-12T14:31:31.381Z,97264.34
2023-03-12T14:34:08.284Z,97278.69
2023-03-12T14:36:41.849Z,97264.34
2023-03-12T14:39:24.907Z,97252.13
2023-03-12T14:41:57.464Z,97265.19
2023-03-12T14:44:28.434Z,97255.84
2023-03-12T14:47:02.330Z,97258.34
2023-03-12T14:49:33.184Z,97256.28
2023-03-12T14:52:01.467Z,97251.13
2023-03-12T14:54:30.216Z,97250.84
2023-03-12T14:56:58.538Z,97251.28
2023-03-12T14:59:31.164Z,97260.28
2023-03-12T15:02:12.683Z,97266.78
2023-03-12T15:04:43.111Z,97262.50
2023-03-12T15:07:16.427Z,97271.50
2023-03-12T15:09:49.852Z,97272.50
2023-03-12T15:12:23.975Z,97267.03
2023-03-12T15:14:57.044Z,97266.28
2023-03-12T15:17:30.429Z,97267.41
2023-03-12T15:20:00.631Z,97259.03
2023-03-12T15:22:29.111Z,97263.03
2023-03-12T15:24:57.383Z,97256.31
2023-03-12T15:27:35.491Z,97252.28
2023-03-12T15:30:23.839Z,97246.38
2023-03-12T15:33:13.814Z,97244.25
2023-03-12T15:35:59.862Z,97243.97
2023-03-12T15:38:28.465Z,97249.66
2023-03-12T15:41:01.781Z,97252.94
2023-03-12T15:43:30.223Z,97252.50
2023-03-12T15:46:02.753Z,97255.53
2023-03-12T15:48:34.306Z,97254.56
2023-03-12T15:51:04.320Z,97251.31
2023-03-12T15:53:35.145Z,97238.63
2023-03-12T15:56:08.901Z,97239.47
2023-03-12T15:58:38.898Z,97240.28
2023-03-12T16:01:13.574Z,97241.13
2023-03-12T16:03:45.377Z,97239.63
2023-03-12T16:06:17.386Z,97235.44
2023-03-12T16:08:49.038Z,97230.28
2023-03-12T16:11:21.046Z,97241.03
2023-03-12T16:13:51.521Z,97240.88
2023-03-12T16:16:20.322Z,97237.13
2023-03-12T16:18:48.540Z,97241.41
2023-03-12T16:21:18.183Z,97249.22
2023-03-12T16:23:46.521Z,97242.91
2023-03-12T16:26:15.903Z,97246.09
2023-03-12T16:28:44.739Z,97236.38
2023-03-12T16:31:13.991Z,97241.50
2023-03-12T16:33:43.633Z,97237.19
2023-03-12T16:36:15.825Z,97251.94
2023-03-12T16:38:46.126Z,97251.78
2023-03-12T16:41:17.797Z,97247.00
2023-03-12T16:43:50.169Z,97245.88
2023-03-12T16:46:21.325Z,97239.44
2023-03-12T16:48:54.200Z,97242.91
2023-03-12T16:51:23.111Z,97243.59
2023-03-12T16:54:05.473Z,97242.59
2023-03-12T16:56:37.417Z,97236.50
2023-03-12T16:59:09.717Z,97245.09
2023-03-12T17:01:39.093Z,97249.44
2023-03-12T17:04:07.356Z,97244.81
2023-03-12T17:06:35.654Z,97246.34
2023-03-12T17:09:06.076Z,97253.28
2023-03-12T17:11:34.434Z,97256.63
2023-03-12T17:14:06.707Z,97261.75
2023-03-12T17:16:35.233Z,97261.75
2023-03-12T17:19:03.958Z,97273.00
2023-03-12T17:21:32.221Z,97279.00
2023-03-12T17:24:01.073Z,97282.50
2023-03-12T17:26:30.852Z,97287.78
2023-03-12T17:28:59.144Z,97285.78
2023-03-12T17:31:27.537Z,97290.28
2023-03-12T17:33:55.841Z,97287.63
2023-03-12T17:36:24.167Z,97290.94
2023-03-12T17:38:52.479Z,97295.28
2023-03-12T17:41:26.528Z,97293.44
2023-03-12T17:44:01.534Z,97301.53
2023-03-12T17:46:30.993Z,97306.81
2023-03-12T17:48:59.393Z,97306.00
2023-03-12T17:51:28.981Z,97304.47
2023-03-12T17:53:57.250Z,97309.94
2023-03-12T17:56:25.711Z,97318.03
2023-03-12T17:58:54.044Z,97325.31
2023-03-12T18:01:24.183Z,97328.25
2023-03-12T18:03:52.456Z,97307.81
2023-03-12T18:06:20.691Z,97307.28
2023-03-12T18:08:48.987Z,97309.41
2023-03-12T18:11:17.302Z,97311.53
2023-03-12T18:13:48.270Z,97315.59
2023-03-12T18:16:17.183Z,97330.78
2023-03-12T18:18:46.901Z,97325.94
2023-03-12T18:21:15.248Z,97346.41
2023-03-12T18:23:45.974Z,97323.88
2023-03-12T18:26:14.334Z,97314.59
2023-03-12T18:28:42.652Z,97315.03
2023-03-12T18:31:11.293Z,97303.91
2023-03-12T18:33:40.963Z,97294.75
2023-03-12T18:36:08.942Z,97298.66
2023-03-12T18:38:38.737Z,97306.91
2023-03-12T18:41:08.780Z,97318.47
2023-03-12T18:43:37.112Z,97322.25
2023-03-12T18:46:06.648Z,97318.91
2023-03-12T18:48:34.984Z,97322.81
2023-03-12T18:51:03.643Z,97308.75
2023-03-12T18:53:33.160Z,97311.56
2023-03-12T18:56:02.926Z,97312.53
2023-03-12T18:58:31.132Z,97315.19
2023-03-12T19:01:01.843Z,97316.97
2023-03-12T19:03:33.827Z,97324.91
2023-03-12T19:06:04.060Z,97319.78
2023-03-12T19:08:32.511Z,97325.91
2023-03-12T19:11:05.109Z,97333.97
2023-03-12T19:13:33.482Z,97341.78
2023-03-12T19:16:05.200Z,97335.66
2023-03-12T19:18:35.131Z,97334.97
2023-03-12T19:21:03.540Z,97336.63
2023-03-12T19:23:31.886Z,97332.34
2023-03-12T19:26:00.119Z,97339.28
2023-03-12T19:28:31.180Z,97340.25
2023-03-12T19:31:02.785Z,97337.75
2023-03-12T19:33:31.503Z,97343.88
2023-03-12T19:36:00.246Z,97335.94
2023-03-12T19:38:28.965Z,97334.13
2023-03-12T19:40:58.977Z,97336.06
2023-03-12T19:43:29.240Z,97341.22
2023-03-12T19:45:57.553Z,97333.44
2023-03-12T19:48:26.294Z,97340.56
2023-03-12T19:50:55.946Z,97338.72
2023-03-12T19:53:24.803Z,97335.25
2023-03-12T19:55:53.442Z,97340.69
2023-03-12T19:58:21.711Z,97336.38
2023-03-12T20:00:51.357Z,97340.84
2023-03-12T20:03:20.798Z,97336.38
2023-03-12T20:05:50.515Z,97345.28
2023-03-12T20:08:20.896Z,97350.56
2023-03-12T20:10:49.992Z,97362.00
2023-03-12T20:13:18.622Z,97360.31
2023-03-12T20:15:48.521Z,97361.28
2023-03-12T20:18:18.297Z,97353.38
2023-03-12T20:20:48.092Z,97363.09
2023-03-12T20:23:16.424Z,97353.66
2023-03-12T20:25:44.704Z,97359.78
2023-03-12T20:28:12.952Z,97366.88
2023-03-12T20:30:41.666Z,97367.00
2023-03-12T20:33:09.955Z,97375.94
2023-03-12T20:35:39.716Z,97368.97
2023-03-12T20:38:08.233Z,97366.47
2023-03-12T20:40:36.550Z,97368.44
2023-03-12T20:43:05.374Z,97379.97
2023-03-12T20:45:34.750Z,97373.88
2023-03-12T20:48:03.186Z,97369.38
2023-03-12T20:50:31.415Z,97368.56
2023-03-12T20:53:01.000Z,97365.09
2023-03-12T20:55:29.201Z,97368.56
2023-03-12T20:57:57.469Z,97366.06
2023-03-12T21:00:25.990Z,97365.38
2023-03-12T21:02:54.284Z,97355.78
2023-03-12T21:05:24.915Z,97360.09
2023-03-12T21:07:58.133Z,97362.88
2023-03-12T21:10:28.444Z,97365.66
2023-03-12T21:12:57.850Z,97370.94
2023-03-12T21:15:26.136Z,97370.94
2023-03-12T21:17:54.414Z,97369.28
2023-03-12T21:20:23.599Z,97367.63
2023-03-12T21:22:51.852Z,97369.28
2023-03-12T21:25:20.311Z,97363.16
2023-03-12T21:27:51.649Z,97366.78
2023-03-12T21:30:20.938Z,97368.59
2023-03-12T21:32:49.290Z,97374.88
2023-03-12T21:35:19.900Z,97382.78
2023-03-12T21:37:48.602Z,97384.59
2023-03-12T21:40:17.427Z,97388.22
2023-03-12T21:42:45.660Z,97401.28
2023-03-12T21:45:15.257Z,97379.56
2023-03-12T21:47:43.524Z,97377.91
2023-03-12T21:50:12.869Z,97385.97
2023-03-12T21:52:43.726Z,97383.31
2023-03-12T21:55:12.574Z,97373.75
2023-03-12T21:57:40.880Z,97372.75
2023-03-12T22:00:13.136Z,97369.28
2023-03-12T22:02:43.217Z,97375.41
2023-03-12T22:05:12.764Z,97377.06
2023-03-12T22:07:41.291Z,97372.63
2023-03-12T22:10:12.186Z,97371.78
2023-03-12T22:12:40.765Z,97359.50
2023-03-12T22:15:10.807Z,97365.59
2023-03-12T22:17:39.084Z,97359.94
2023-03-12T22:20:11.699Z,97362.16
2023-03-12T22:22:39.968Z,97354.38
2023-03-12T22:25:09.311Z,97354.66
2023-03-12T22:27:37.564Z,97357.31
2023-03-12T22:30:07.312Z,97344.22
2023-03-12T22:32:35.577Z,97351.16
2023-03-12T22:35:03.858Z,97351.03
2023-03-12T22:37:33.583Z,97344.22
2023-03-12T22:40:07.242Z,97343.38
2023-03-12T22:42:35.510Z,97339.78
2023-03-12T22:45:04.186Z,97346.88
2023-03-12T22:47:32.464Z,97337.28
2023-03-12T22:50:00.689Z,97332.81
2023-03-12T22:52:28.907Z,97339.09
2023-03-12T22:54:58.533Z,97333.94
2023-03-12T22:57:26.838Z,97334.78
2023-03-12T22:59:55.050Z,97325.88
2023-03-12T23:02:23.267Z,97328.66
2023-03-12T23:04:51.548Z,97328.66
2023-03-12T23:07:19.981Z,97328.66
2023-03-12T23:09:48.913Z,97326.00
2023-03-12T23:12:18.524Z,97312.94
2023-03-12T23:14:46.776Z,97317.25
2023-03-12T23:17:15.010Z,97324.34
2023-03-12T23:19:43.765Z,97321.88
2023-03-12T23:22:12.134Z,97311.44
2023-03-12T23:24:40.417Z,97309.78
2023-03-12T23:27:09.104Z,97310.59
2023-03-12T23:29:38.728Z,97318.50
2023-03-12T23:32:07.999Z,97313.38
2023-03-12T23:34:36.672Z,97306.41
2023-03-12T23:37:05.358Z,97304.75
2023-03-12T23:39:42.007Z,97303.06
2023-03-12T23:42:13.315Z,97309.47
2023-03-12T23:44:43.012Z,97301.69
2023-03-12T23:47:11.612Z,97309.63
2023-03-12T23:49:39.855Z,97299.06
2023-03-12T23:52:08.395Z,97300.03
2023-03-12T23:54:36.919Z,97296.41
2023-03-12T23:57:05.387Z,97300.03
2023-03-12T23:59:33.627Z,97290.28
